Terminal Aerodrome Forecast
Issued by NWS Sterling, VA

Current Version | Previous Version | Graphics & Text | Print | Product List | Glossary On
Versions: 1 2 3 4 5 6 7 8 9 10 11 12 13 14 15
000
FTUS41 KLWX 270529
TAFMRB
TAF
KMRB 270529Z 2706/2806 00000KT 6SM -SN SCT025 BKN035
     FM270800 33006KT 5SM -SN BKN025
     FM271500 32010G18KT P6SM -SN BKN035
     FM272100 32012G20KT P6SM SCT035
     FM280100 32008KT P6SM SCT150=

USA.gov is the U.S. government's official web portal to all federal, state and local government web resources and services.